Aneth, Utah
Current Conditions -  °F | °C
As of 3:15 PM on Friday 24 Oct 2014 (Local Time) from KBDG Reporting Station
Clear Clear  
Wind Chill: 22°   Ceiling: Unl
Heat Index: 22°   Visibility: 10mi
Dew Point:   Wind: 7mph
Humidity: 24%   Direction: 150°SSE
Pressure: 30.37"   Gusts: NA
Location:  37.22°N, 109.19°W
Report Text: KBDG 242115Z AUTO 15006KT 10SM CLR 22/00 A3037 RMK AO1 T02210003
Loading
Personal Weather Stations






























Interactive Weather Map
Tropical Storm Tracking
New forecast layout! Learn more

10-Day Weather Forecast

Advertisements
Track Severe Weather on mobile